Time;durP1;ratioP1;P1;durP2;ratioP2;P2;SDS_P1;SDS_P2;PMS_P1;PMS_P2;Temp;Humidity;BMP_temperature;BMP_pressure;BME280_temperature;BME280_humidity;BME280_pressure;Samples;Min_cycle;Max_cycle;Signal;HPM_P1;HPM_P2
2021/11/29 00:00:42;;;;;;;8.07;5.22;;;15.90;67.10;;;;;;10583769;28;20016;-54
2021/11/29 00:05:43;;;;;;;7.65;4.75;;;15.90;67.00;;;;;;10564897;28;20150;-54
2021/11/29 00:10:43;;;;;;;10.23;5.68;;;15.90;67.20;;;;;;10565033;28;20114;-54
2021/11/29 00:15:44;;;;;;;8.68;5.22;;;15.90;67.00;;;;;;10582954;28;20028;-53
2021/11/29 00:20:45;;;;;;;7.38;4.55;;;15.90;67.10;;;;;;10582721;28;20023;-54
2021/11/29 00:25:47;;;;;;;7.60;4.30;;;15.90;67.20;;;;;;10564518;28;20030;-54
2021/11/29 00:30:47;;;;;;;9.05;5.10;;;15.80;67.10;;;;;;10555008;28;20060;-54
2021/11/29 00:35:49;;;;;;;7.70;4.20;;;15.80;67.10;;;;;;10560364;28;20039;-54
2021/11/29 00:40:50;;;;;;;5.90;4.63;;;15.80;67.10;;;;;;10581792;28;20043;-54
2021/11/29 00:45:52;;;;;;;8.52;4.28;;;15.80;67.20;;;;;;10581704;28;20059;-54
2021/11/29 00:50:53;;;;;;;6.07;4.07;;;15.80;67.20;;;;;;10563671;28;20114;-54
2021/11/29 00:55:54;;;;;;;7.38;3.35;;;15.70;67.10;;;;;;10581387;28;20028;-55
2021/11/29 01:00:56;;;;;;;6.72;3.80;;;15.70;67.20;;;;;;10562768;28;20031;-53
2021/11/29 01:05:57;;;;;;;5.93;3.63;;;15.70;67.00;;;;;;10544339;28;20081;-53
2021/11/29 01:10:58;;;;;;;6.40;3.63;;;15.70;67.00;;;;;;10562608;28;20084;-54
2021/11/29 01:15:59;;;;;;;6.75;4.07;;;15.70;67.00;;;;;;10575090;28;20032;-55
2021/11/29 01:20:59;;;;;;;5.85;4.15;;;15.70;67.00;;;;;;10580158;28;20028;-53
2021/11/29 01:26:01;;;;;;;6.93;3.85;;;15.70;67.10;;;;;;10576865;28;20486;-54
2021/11/29 01:31:01;;;;;;;5.57;3.30;;;15.70;67.00;;;;;;10540392;28;20116;-51
2021/11/29 01:36:03;;;;;;;5.38;3.88;;;15.70;67.00;;;;;;10576460;28;20100;-52
2021/11/29 01:41:04;;;;;;;6.53;3.35;;;15.80;66.80;;;;;;10560340;28;20442;-54
2021/11/29 01:46:05;;;;;;;6.03;3.42;;;15.80;66.80;;;;;;10561198;28;20028;-54
2021/11/29 01:51:06;;;;;;;4.85;3.00;;;15.80;66.60;;;;;;10579180;28;20039;-53
2021/11/29 01:56:07;;;;;;;4.50;3.10;;;15.80;66.60;;;;;;10561112;28;20088;-53
2021/11/29 02:01:16;;;;;;;5.43;3.13;;;15.80;66.60;;;;;;10579205;28;20420;-53
2021/11/29 02:06:17;;;;;;;6.35;3.58;;;15.80;66.60;;;;;;10578439;28;20031;-54
2021/11/29 02:11:20;;;;;;;6.82;4.50;;;15.80;66.40;;;;;;10560438;28;20110;-54
2021/11/29 02:16:22;;;;;;;4.00;2.95;;;15.80;66.30;;;;;;10560483;28;20023;-54
2021/11/29 02:21:31;;;;;;;5.43;3.15;;;15.90;66.30;;;;;;10578006;28;20031;-53
2021/11/29 02:26:35;;;;;;;;;;;15.90;66.10;;;;;;10578789;28;20062;-54
2021/11/29 02:31:43;;;;;;;3.95;2.88;;;15.90;66.00;;;;;;10562924;28;19915;-54
2021/11/29 02:36:46;;;;;;;6.50;3.47;;;16.00;65.80;;;;;;10577829;28;20023;-54
2021/11/29 02:41:48;;;;;;;5.40;3.10;;;16.00;65.60;;;;;;10559614;28;20115;-54
2021/11/29 02:46:49;;;;;;;4.38;2.88;;;16.00;65.70;;;;;;10559580;28;20031;-53
2021/11/29 02:51:54;;;;;;;4.82;2.97;;;15.90;65.80;;;;;;10577554;28;20437;-51
2021/11/29 02:56:59;;;;;;;4.55;2.88;;;15.90;65.70;;;;;;10577679;28;20039;-54
2021/11/29 03:02:07;;;;;;;4.30;2.63;;;15.90;65.60;;;;;;10559575;28;20023;-54
2021/11/29 03:07:09;;;;;;;5.78;2.95;;;16.00;65.60;;;;;;10559145;28;20084;-52
2021/11/29 03:12:11;;;;;;;3.35;2.05;;;15.90;65.70;;;;;;10577797;28;20120;-53
2021/11/29 03:17:11;;;;;;;4.88;2.88;;;15.90;65.60;;;;;;10581204;28;20032;-52
2021/11/29 03:22:12;;;;;;;3.50;2.33;;;15.90;65.50;;;;;;10566946;28;20020;-53
2021/11/29 03:27:15;;;;;;;4.32;2.40;;;15.90;65.60;;;;;;10584892;28;20032;-53
2021/11/29 03:32:19;;;;;;;4.45;2.42;;;15.90;65.70;;;;;;10584781;28;20028;-53
2021/11/29 03:37:20;;;;;;;4.38;2.38;;;15.90;65.60;;;;;;10585091;28;20039;-54
2021/11/29 03:42:21;;;;;;;3.42;2.30;;;15.90;65.60;;;;;;10523931;28;20036;-54
2021/11/29 03:47:22;;;;;;;4.82;2.40;;;15.90;65.60;;;;;;10540763;28;20044;-54
2021/11/29 03:52:23;;;;;;;4.25;2.80;;;15.90;65.60;;;;;;10541837;28;20035;-54
2021/11/29 03:57:23;;;;;;;3.78;2.10;;;16.00;65.40;;;;;;10542308;28;20602;-53
2021/11/29 04:02:24;;;;;;;3.35;2.17;;;16.00;65.30;;;;;;10540222;28;20038;-55
2021/11/29 04:07:25;;;;;;;3.63;2.33;;;16.00;65.40;;;;;;10541255;28;20487;-53
2021/11/29 04:12:26;;;;;;;4.03;2.20;;;16.00;65.20;;;;;;10539802;28;20077;-53
2021/11/29 04:17:27;;;;;;;2.70;1.38;;;16.00;65.20;;;;;;10541270;28;20051;-55
2021/11/29 04:22:28;;;;;;;3.38;2.15;;;16.00;65.20;;;;;;10540606;28;20115;-54
2021/11/29 04:27:30;;;;;;;5.00;2.10;;;16.00;65.20;;;;;;10540175;28;20119;-54
2021/11/29 04:32:31;;;;;;;3.45;2.05;;;16.00;65.20;;;;;;10526632;28;20384;-54
2021/11/29 04:37:32;;;;;;;5.78;2.75;;;16.00;65.20;;;;;;10539158;28;20072;-54
2021/11/29 04:42:33;;;;;;;2.75;1.63;;;16.00;65.20;;;;;;10571322;28;20072;-53
2021/11/29 04:47:34;;;;;;;2.88;1.65;;;16.00;65.00;;;;;;10546888;28;20386;-53
2021/11/29 04:52:36;;;;;;;3.88;2.15;;;16.10;64.90;;;;;;10563737;28;20513;-53
2021/11/29 04:57:36;;;;;;;3.17;1.92;;;16.10;64.80;;;;;;10546276;28;20031;-54
2021/11/29 05:02:37;;;;;;;4.00;1.50;;;16.00;64.80;;;;;;10581120;28;20044;-54
2021/11/29 05:07:38;;;;;;;3.47;1.80;;;16.00;64.90;;;;;;10581123;28;20107;-54
2021/11/29 05:12:39;;;;;;;3.45;1.70;;;15.90;65.00;;;;;;10562610;28;20110;-54
2021/11/29 05:17:40;;;;;;;2.70;1.42;;;16.00;65.00;;;;;;10580592;28;20160;-52
2021/11/29 05:22:41;;;;;;;2.13;1.65;;;16.00;64.90;;;;;;10562175;28;20159;-54
2021/11/29 05:27:41;;;;;;;2.83;1.65;;;16.10;64.70;;;;;;10580221;28;20554;-50
2021/11/29 05:32:42;;;;;;;2.28;1.40;;;16.10;64.70;;;;;;10579881;28;20054;-54
2021/11/29 05:37:43;;;;;;;2.38;1.52;;;16.00;64.70;;;;;;10560875;28;20035;-53
2021/11/29 05:42:44;;;;;;;5.05;1.40;;;16.00;64.70;;;;;;10561612;28;20097;-47
2021/11/29 05:47:45;;;;;;;2.65;1.65;;;16.20;64.80;;;;;;10549837;28;20035;-48
2021/11/29 05:52:47;;;;;;;4.20;1.40;;;16.40;65.60;;;;;;10581139;28;20032;-46
2021/11/29 05:57:47;;;;;;;3.15;1.40;;;16.70;64.90;;;;;;10563042;28;20038;-52
2021/11/29 06:02:48;;;;;;;5.20;1.85;;;16.70;64.80;;;;;;10562433;28;20038;-49
2021/11/29 06:07:49;;;;;;;4.45;1.50;;;16.80;65.10;;;;;;10580660;28;20027;-49
2021/11/29 06:12:49;;;;;;;6.75;1.92;;;16.80;65.40;;;;;;10578852;28;20031;-56
2021/11/29 06:17:50;;;;;;;8.45;1.70;;;16.90;65.70;;;;;;10580359;28;20022;-56
2021/11/29 06:22:55;;;;;;;3.85;1.15;;;16.90;65.20;;;;;;10562647;27;20043;-56
2021/11/29 06:27:56;;;;;;;5.82;1.02;;;16.90;64.80;;;;;;10543097;28;20107;-56
2021/11/29 06:32:57;;;;;;;6.88;1.98;;;16.90;65.00;;;;;;10547813;28;20084;-60
2021/11/29 06:38:05;;;;;;;5.72;1.45;;;16.90;64.80;;;;;;10558414;28;20036;-57
2021/11/29 06:43:06;;;;;;;8.90;1.65;;;16.90;64.60;;;;;;10542028;28;20090;-57
2021/11/29 06:48:06;;;;;;;11.50;1.35;;;17.00;63.90;;;;;;10570104;28;20058;-57
2021/11/29 06:53:07;;;;;;;6.82;1.50;;;17.20;63.20;;;;;;10551545;28;20076;-56
2021/11/29 06:58:08;;;;;;;11.80;1.60;;;17.30;63.00;;;;;;10569394;28;20031;-56
2021/11/29 07:03:09;;;;;;;15.13;2.38;;;17.40;62.80;;;;;;10585406;28;20031;-56
2021/11/29 07:08:09;;;;;;;8.63;1.90;;;17.40;62.80;;;;;;10582203;28;20065;-53
2021/11/29 07:13:12;;;;;;;14.50;2.58;;;17.50;62.90;;;;;;10582598;28;20447;-56
2021/11/29 07:18:14;;;;;;;14.50;2.05;;;17.40;62.80;;;;;;10564714;28;20395;-55
2021/11/29 07:23:14;;;;;;;12.00;1.67;;;17.50;62.50;;;;;;10564269;28;20031;-56
2021/11/29 07:28:15;;;;;;;12.23;2.35;;;17.50;62.20;;;;;;10583566;28;20031;-55
2021/11/29 07:33:16;;;;;;;16.33;3.03;;;17.50;62.20;;;;;;10572395;28;20462;-56
2021/11/29 07:38:17;;;;;;;8.05;1.52;;;17.60;62.70;;;;;;10586289;28;20045;-56
2021/11/29 07:43:18;;;;;;;8.60;1.63;;;17.60;61.90;;;;;;10585905;28;20047;-55
2021/11/29 07:48:19;;;;;;;6.25;1.20;;;17.60;62.00;;;;;;10550441;28;20620;-56
2021/11/29 07:53:21;;;;;;;6.93;1.42;;;17.70;61.90;;;;;;10567194;28;20028;-56
2021/11/29 07:58:23;;;;;;;4.00;1.65;;;17.70;62.10;;;;;;10566992;28;20050;-56
2021/11/29 08:03:24;;;;;;;11.57;1.27;;;17.70;62.20;;;;;;10565926;28;20487;-55
2021/11/29 08:08:24;;;;;;;8.90;1.42;;;17.80;62.10;;;;;;10567216;28;20043;-56
2021/11/29 08:13:25;;;;;;;5.57;1.75;;;17.80;62.30;;;;;;10584126;28;20064;-55
2021/11/29 08:18:26;;;;;;;6.63;1.52;;;17.80;62.30;;;;;;10560955;28;20061;-57
2021/11/29 08:23:27;;;;;;;8.32;1.88;;;17.80;62.20;;;;;;10558135;28;20035;-56
2021/11/29 08:28:28;;;;;;;2.65;1.00;;;17.80;62.40;;;;;;10572887;28;20024;-57
2021/11/29 08:33:29;;;;;;;6.25;1.15;;;17.90;62.30;;;;;;10552162;28;20465;-56
2021/11/29 08:38:29;;;;;;;5.03;1.30;;;17.80;62.50;;;;;;10563287;28;20163;-57
2021/11/29 08:43:31;;;;;;;4.10;1.00;;;17.90;62.70;;;;;;10582508;28;20050;-56
2021/11/29 08:48:32;;;;;;;6.82;1.23;;;17.90;62.50;;;;;;10583835;28;20028;-56
2021/11/29 08:53:36;;;;;;;5.38;0.93;;;17.90;62.70;;;;;;10563221;28;20054;-56
2021/11/29 08:58:38;;;;;;;9.40;1.67;;;17.90;62.40;;;;;;10581197;28;20123;-57
2021/11/29 09:03:39;;;;;;;6.63;1.27;;;17.90;62.60;;;;;;10546155;28;20055;-57
2021/11/29 09:08:40;;;;;;;4.78;1.38;;;18.00;62.40;;;;;;10563021;28;20023;-57
2021/11/29 09:13:43;;;;;;;6.38;1.30;;;18.00;62.50;;;;;;10580737;28;20114;-57
2021/11/29 09:18:45;;;;;;;5.28;0.80;;;18.00;62.50;;;;;;10562552;28;20479;-57
2021/11/29 09:23:47;;;;;;;5.68;0.93;;;18.00;62.40;;;;;;10580448;28;20031;-57
2021/11/29 09:28:47;;;;;;;7.13;1.00;;;18.00;62.50;;;;;;10562007;28;20024;-58
2021/11/29 09:33:48;;;;;;;5.90;0.90;;;18.10;62.20;;;;;;10578410;28;20034;-58
2021/11/29 09:38:49;;;;;;;6.53;1.13;;;18.10;62.40;;;;;;10559611;28;20050;-55
2021/11/29 09:43:52;;;;;;;7.85;1.58;;;18.10;62.20;;;;;;10577745;28;20031;-56
2021/11/29 09:48:54;;;;;;;7.13;0.90;;;18.10;62.30;;;;;;10557893;28;20095;-57
2021/11/29 09:53:55;;;;;;;6.30;0.90;;;18.20;62.40;;;;;;10558007;28;20019;-55
2021/11/29 09:58:58;;;;;;;6.97;0.93;;;18.30;62.30;;;;;;10551835;28;20032;-56
2021/11/29 10:03:59;;;;;;;4.00;1.02;;;18.30;62.40;;;;;;10561681;28;20028;-57
2021/11/29 10:09:00;;;;;;;3.58;0.60;;;18.20;62.40;;;;;;10579514;28;20020;-58
2021/11/29 10:14:08;;;;;;;4.50;1.00;;;18.20;62.40;;;;;;10561150;28;20035;-57
2021/11/29 10:19:18;;;;;;;6.60;1.50;;;18.20;62.70;;;;;;10562737;28;20032;-57
2021/11/29 10:24:19;;;;;;;4.53;0.90;;;18.20;62.90;;;;;;10579668;28;20110;-57
2021/11/29 10:29:25;;;;;;;4.70;1.10;;;18.40;62.60;;;;;;10545257;28;20047;-58
2021/11/29 10:34:32;;;;;;;9.13;1.27;;;18.50;62.40;;;;;;10545315;28;20058;-57
2021/11/29 10:39:42;;;;;;;4.07;0.98;;;18.50;62.60;;;;;;10562013;28;20131;-58
2021/11/29 10:44:45;;;;;;;3.60;0.50;;;18.50;62.40;;;;;;10579922;28;20030;-57
2021/11/29 10:49:55;;;;;;;3.95;1.20;;;18.50;62.60;;;;;;10561159;28;20027;-57
2021/11/29 10:54:58;;;;;;;6.13;0.90;;;18.50;62.40;;;;;;10547902;28;20027;-58
2021/11/29 10:59:58;;;;;;;6.03;0.85;;;18.50;62.40;;;;;;10579513;28;20204;-57
2021/11/29 11:05:12;;;;;;;7.38;1.17;;;18.50;62.20;;;;;;10561270;28;20111;-57
2021/11/29 11:10:15;;;;;;;5.25;1.05;;;18.40;62.30;;;;;;10578992;28;20016;-57
2021/11/29 11:15:19;;;;;;;5.20;0.85;;;18.60;61.90;;;;;;10578437;28;20681;-57
2021/11/29 11:20:20;;;;;;;2.95;0.70;;;18.60;61.90;;;;;;10557096;28;20490;-57
2021/11/29 11:25:26;;;;;;;7.40;0.98;;;18.70;61.70;;;;;;10559824;28;20039;-58
2021/11/29 11:30:30;;;;;;;4.05;0.75;;;18.50;62.40;;;;;;10575158;28;20344;-57
2021/11/29 11:35:36;;;;;;;4.28;0.70;;;18.60;62.10;;;;;;10578611;28;20363;-56
2021/11/29 11:40:42;;;;;;;1.98;0.70;;;18.60;62.00;;;;;;10551425;28;20141;-56
2021/11/29 11:45:46;;;;;;;3.55;0.60;;;18.80;61.80;;;;;;10551406;28;20056;-56
2021/11/29 11:50:54;;;;;;;2.20;0.60;;;18.80;61.90;;;;;;10586255;28;20027;-56
2021/11/29 11:55:55;;;;;;;4.32;0.50;;;18.90;61.70;;;;;;10551016;28;20605;-58
2021/11/29 12:01:10;;;;;;;2.45;0.70;;;18.80;61.70;;;;;;10549662;28;20034;-55
2021/11/29 12:06:13;;;;;;;5.55;1.25;;;18.70;61.90;;;;;;10567925;28;20032;-55
2021/11/29 12:11:27;;;;;;;3.20;0.85;;;18.60;62.20;;;;;;10567861;28;20079;-58
2021/11/29 12:16:42;;;;;;;2.83;0.93;;;18.50;63.20;;;;;;10585467;28;20028;-58
2021/11/29 12:21:43;;;;;;;1.48;0.65;;;18.40;63.40;;;;;;10566999;28;20460;-57
2021/11/29 12:26:47;;;;;;;2.80;0.60;;;18.30;64.20;;;;;;10549825;28;20035;-57
2021/11/29 12:31:59;;;;;;;5.13;0.70;;;18.40;63.90;;;;;;10584719;28;20028;-57
2021/11/29 12:37:00;;;;;;;1.33;0.30;;;18.40;64.10;;;;;;10567399;28;20402;-58
2021/11/29 12:42:00;;;;;;;1.05;0.52;;;18.50;63.70;;;;;;10583531;28;20048;-58
2021/11/29 12:47:28;;;;;;;6.07;0.70;;;18.50;63.80;;;;;;10565093;28;20023;-57
2021/11/29 12:52:45;;;;;;;8.52;0.93;;;18.50;63.60;;;;;;10566114;28;20057;-58
2021/11/29 12:58:09;;;;;;;3.80;0.93;;;18.50;63.60;;;;;;10565327;28;20024;-57
2021/11/29 13:03:12;;;;;;;4.53;0.80;;;18.40;63.30;;;;;;10582576;28;20032;-57
2021/11/29 13:08:26;;;;;;;6.38;0.85;;;18.50;63.10;;;;;;10564293;28;20069;-58
2021/11/29 13:14:00;;;;;;;2.05;0.47;;;18.60;62.60;;;;;;10581558;28;20077;-57
2021/11/29 13:19:12;;;;;;;4.93;0.85;;;18.70;62.90;;;;;;10570511;28;20031;-57
2021/11/29 13:24:32;;;;;;;3.50;0.75;;;18.60;62.30;;;;;;10560874;28;20055;-58
2021/11/29 13:29:46;;;;;;;1.15;0.38;;;18.60;62.30;;;;;;10563101;28;20439;-57
2021/11/29 13:35:02;;;;;;;4.40;0.68;;;18.70;62.10;;;;;;10551041;28;20425;-57
2021/11/29 13:40:13;;;;;;;1.63;0.63;;;18.60;62.00;;;;;;10581199;28;20532;-57
2021/11/29 13:45:31;;;;;;;5.70;0.60;;;18.60;62.10;;;;;;10581032;28;20032;-58
2021/11/29 13:50:39;;;;;;;4.63;0.88;;;18.50;62.00;;;;;;10581541;28;20020;-59
2021/11/29 13:55:44;;;;;;;4.22;1.17;;;18.40;61.80;;;;;;10562872;28;20034;-59
2021/11/29 14:00:50;;;;;;;6.70;1.17;;;18.50;62.10;;;;;;10580552;28;20096;-57
2021/11/29 14:06:04;;;;;;;7.20;1.30;;;18.60;61.60;;;;;;10580723;28;20036;-59
2021/11/29 14:11:10;;;;;;;9.55;2.50;;;18.70;61.90;;;;;;10580592;28;20108;-58
2021/11/29 14:16:17;;;;;;;14.18;2.15;;;18.70;62.10;;;;;;10562697;28;20032;-58
2021/11/29 14:21:26;;;;;;;8.85;1.77;;;18.80;62.50;;;;;;10580609;28;20110;-60
2021/11/29 14:26:39;;;;;;;18.05;1.80;;;18.80;62.70;;;;;;10562452;28;20019;-59
2021/11/29 14:31:40;;;;;;;16.45;1.98;;;18.80;63.10;;;;;;10567589;28;20043;-59
2021/11/29 14:36:46;;;;;;;15.48;2.50;;;18.80;63.40;;;;;;10562153;28;20167;-59
2021/11/29 14:42:04;;;;;;;12.75;2.10;;;18.70;62.60;;;;;;10579678;28;20092;-59
2021/11/29 14:47:17;;;;;;;18.35;2.95;;;18.70;62.90;;;;;;10561406;28;20035;-58
2021/11/29 14:52:21;;;;;;;22.52;3.30;;;18.70;63.10;;;;;;10579754;28;20064;-56
2021/11/29 14:57:24;;;;;;;19.73;3.55;;;18.70;63.00;;;;;;10579564;28;20028;-58
2021/11/29 15:02:25;;;;;;;32.95;2.63;;;18.60;63.30;;;;;;10579422;28;20480;-58
2021/11/29 15:07:31;;;;;;;17.33;2.50;;;18.70;63.10;;;;;;10561190;28;20020;-58
2021/11/29 15:12:36;;;;;;;19.10;2.90;;;18.60;63.10;;;;;;10566353;28;20088;-58
2021/11/29 15:17:45;;;;;;;16.58;3.38;;;18.60;62.80;;;;;;10567590;28;20073;-58
2021/11/29 15:22:56;;;;;;;16.98;2.80;;;18.70;63.30;;;;;;10567471;28;20379;-57
2021/11/29 15:28:20;;;;;;;9.88;3.22;;;18.70;62.60;;;;;;10586191;28;20042;-58
2021/11/29 15:33:32;;;;;;;13.23;2.63;;;18.70;62.40;;;;;;10557835;28;20088;-57
2021/11/29 15:38:38;;;;;;;12.52;2.22;;;18.60;62.20;;;;;;10567144;28;20063;-56
2021/11/29 15:43:47;;;;;;;13.65;2.40;;;18.60;61.80;;;;;;10567218;28;20039;-57
2021/11/29 15:49:09;;;;;;;8.63;1.27;;;18.50;61.40;;;;;;10567732;28;20035;-57
2021/11/29 15:54:14;;;;;;;9.57;1.40;;;18.60;61.20;;;;;;10555048;28;20043;-57
2021/11/29 15:59:15;;;;;;;11.50;1.80;;;18.60;61.20;;;;;;10567831;28;20030;-56
2021/11/29 16:04:16;;;;;;;9.80;1.30;;;18.70;61.20;;;;;;10550565;28;20402;-57
2021/11/29 16:09:17;;;;;;;9.38;1.10;;;18.60;61.20;;;;;;10566899;28;20031;-57
2021/11/29 16:14:18;;;;;;;16.33;1.92;;;18.70;61.20;;;;;;10584077;28;20027;-57
2021/11/29 16:19:19;;;;;;;7.88;1.42;;;18.70;61.30;;;;;;10565744;28;20067;-55
2021/11/29 16:24:20;;;;;;;9.73;2.00;;;18.60;61.40;;;;;;10565296;28;20151;-57
2021/11/29 16:29:21;;;;;;;5.95;1.40;;;18.60;61.30;;;;;;10565936;28;20027;-57
2021/11/29 16:34:21;;;;;;;10.38;1.85;;;18.60;61.20;;;;;;10582031;28;20031;-57
2021/11/29 16:39:23;;;;;;;7.15;1.30;;;18.60;61.10;;;;;;10583493;28;20062;-58
2021/11/29 16:44:25;;;;;;;11.30;1.27;;;18.60;61.00;;;;;;10530665;28;20049;-60
2021/11/29 16:49:26;;;;;;;10.23;1.23;;;18.60;61.00;;;;;;10560057;28;20028;-57
2021/11/29 16:54:27;;;;;;;9.05;1.92;;;18.50;61.50;;;;;;10549658;28;20364;-58
2021/11/29 16:59:27;;;;;;;7.35;1.23;;;18.60;61.70;;;;;;10560065;28;20064;-58
2021/11/29 17:04:28;;;;;;;7.07;1.00;;;18.50;61.40;;;;;;10540925;28;20076;-58
2021/11/29 17:09:29;;;;;;;4.57;1.20;;;18.30;61.20;;;;;;10555293;28;20028;-56
2021/11/29 17:14:33;;;;;;;14.18;1.70;;;18.40;61.00;;;;;;10559361;28;20081;-57
2021/11/29 17:19:33;;;;;;;11.13;2.05;;;18.30;61.80;;;;;;10575645;28;20036;-52
2021/11/29 17:24:34;;;;;;;6.57;1.20;;;18.50;63.20;;;;;;10582423;28;20414;-51
2021/11/29 17:29:35;;;;;;;8.38;1.17;;;18.60;63.40;;;;;;10582249;28;20034;-53
2021/11/29 17:34:36;;;;;;;6.47;1.40;;;18.60;63.70;;;;;;10562936;28;20508;-54
2021/11/29 17:39:40;;;;;;;5.50;1.30;;;18.60;63.70;;;;;;10563724;28;20093;-52
2021/11/29 17:44:42;;;;;;;8.10;1.45;;;18.70;63.70;;;;;;10562376;28;20032;-54
2021/11/29 17:49:42;;;;;;;7.97;1.27;;;18.70;63.10;;;;;;10563350;28;20064;-53
2021/11/29 17:54:43;;;;;;;16.42;1.90;;;18.50;63.20;;;;;;10555948;28;20535;-54
2021/11/29 17:59:44;;;;;;;14.20;1.92;;;18.60;63.40;;;;;;10563200;28;20400;-49
2021/11/29 18:04:45;;;;;;;13.18;1.85;;;18.60;63.90;;;;;;10562960;28;20378;-55
2021/11/29 18:12:33;;;;;;;13.02;2.90;;;18.50;63.90;;;;;;10580878;28;20019;-54
2021/11/29 18:15:19;;;;;;;13.20;1.83;;;18.50;64.00;;;;;;10580047;28;20039;-54
2021/11/29 18:20:20;;;;;;;13.00;3.03;;;18.50;64.00;;;;;;10580751;28;20542;-54
2021/11/29 18:25:23;;;;;;;8.30;1.88;;;18.50;63.90;;;;;;10562218;28;20039;-54
2021/11/29 18:30:28;;;;;;;7.35;1.30;;;18.40;64.70;;;;;;10562268;28;20487;-54
2021/11/29 18:35:29;;;;;;;10.65;1.83;;;18.40;64.80;;;;;;10561512;28;20028;-54
2021/11/29 18:40:33;;;;;;;10.32;2.40;;;18.40;64.50;;;;;;10560808;28;20039;-55
2021/11/29 18:45:35;;;;;;;4.43;1.30;;;18.40;64.50;;;;;;10549849;28;20102;-55
2021/11/29 18:50:38;;;;;;;7.53;1.77;;;18.40;64.40;;;;;;10568415;28;20475;-55
2021/11/29 18:55:39;;;;;;;8.25;1.42;;;18.40;64.40;;;;;;10549387;28;20039;-55
2021/11/29 19:00:40;;;;;;;7.03;1.45;;;18.50;64.20;;;;;;10555928;28;20032;-55
2021/11/29 19:05:41;;;;;;;5.53;1.20;;;18.60;64.20;;;;;;10538637;28;20035;-55
2021/11/29 19:10:42;;;;;;;4.88;1.35;;;18.50;64.20;;;;;;10571970;28;20020;-55
2021/11/29 19:15:43;;;;;;;10.13;1.10;;;18.60;64.20;;;;;;10556267;28;20120;-54
2021/11/29 19:20:44;;;;;;;4.07;1.00;;;18.60;64.30;;;;;;10568962;28;20020;-55
2021/11/29 19:25:45;;;;;;;6.03;1.23;;;18.60;64.20;;;;;;10592780;28;20363;-55
2021/11/29 19:30:46;;;;;;;9.75;1.40;;;18.60;64.30;;;;;;10582728;28;20046;-54
2021/11/29 19:35:48;;;;;;;2.90;1.20;;;18.60;64.40;;;;;;10578990;28;20027;-56
2021/11/29 19:41:08;;;;;;;6.03;0.90;;;18.60;64.30;;;;;;10574018;28;20043;-54
2021/11/29 19:46:09;;;;;;;3.08;0.73;;;18.60;64.40;;;;;;10575590;28;20028;-56
2021/11/29 19:51:10;;;;;;;3.85;0.82;;;18.60;64.50;;;;;;10587277;28;20019;-56
2021/11/29 19:56:11;;;;;;;3.05;0.85;;;18.60;64.40;;;;;;10574898;28;20922;-56
2021/11/29 20:01:16;;;;;;;11.10;2.28;;;18.60;64.40;;;;;;10552935;28;20378;-55
2021/11/29 20:06:20;;;;;;;3.63;1.25;;;18.60;64.30;;;;;;10556272;28;20023;-56
2021/11/29 20:11:22;;;;;;;3.33;0.80;;;18.60;64.50;;;;;;10548311;28;20084;-53
2021/11/29 20:16:24;;;;;;;2.38;0.90;;;18.50;64.70;;;;;;10565508;28;20035;-55
2021/11/29 20:21:27;;;;;;;2.67;0.88;;;18.40;65.00;;;;;;10581502;28;20032;-59
2021/11/29 20:26:28;;;;;;;11.10;1.40;;;18.20;65.50;;;;;;10563320;28;20142;-57
2021/11/29 20:31:29;;;;;;;1.95;0.82;;;18.10;65.90;;;;;;10563290;28;20032;-54
2021/11/29 20:36:32;;;;;;;2.90;0.80;;;17.90;66.20;;;;;;10546778;28;20035;-56
2021/11/29 20:41:33;;;;;;;7.72;1.20;;;17.80;66.50;;;;;;10545903;28;20563;-57
2021/11/29 20:46:34;;;;;;;3.05;0.70;;;17.70;66.80;;;;;;10565688;28;20119;-56
2021/11/29 20:51:35;;;;;;;4.43;0.88;;;17.50;67.10;;;;;;10577805;28;20472;-56
2021/11/29 20:56:36;;;;;;;3.33;0.85;;;17.40;67.30;;;;;;10565061;28;20034;-56
2021/11/29 21:01:38;;;;;;;3.20;1.30;;;17.30;67.50;;;;;;10555794;28;20028;-57
2021/11/29 21:06:39;;;;;;;3.38;0.60;;;17.30;67.60;;;;;;10582662;28;20033;-57
2021/11/29 21:11:42;;;;;;;3.63;0.82;;;17.20;67.70;;;;;;10582495;28;20035;-57
2021/11/29 21:16:44;;;;;;;2.80;0.77;;;17.20;67.80;;;;;;10564339;28;20066;-57
2021/11/29 21:21:45;;;;;;;2.90;0.90;;;17.10;67.70;;;;;;10564279;28;20028;-56
2021/11/29 21:26:46;;;;;;;3.20;0.90;;;17.00;67.70;;;;;;10564133;28;20530;-56
2021/11/29 21:31:47;;;;;;;3.33;0.73;;;17.00;67.70;;;;;;10563572;28;20042;-57
2021/11/29 21:36:47;;;;;;;7.60;2.10;;;17.00;67.80;;;;;;10581561;28;20043;-56
2021/11/29 21:41:48;;;;;;;2.33;0.60;;;16.90;67.70;;;;;;10563050;28;20048;-57
2021/11/29 21:46:49;;;;;;;2.53;0.70;;;16.90;67.80;;;;;;10581493;28;20106;-57
2021/11/29 21:51:50;;;;;;;1.55;0.55;;;16.80;67.80;;;;;;10562364;28;20096;-57
2021/11/29 21:56:51;;;;;;;4.45;0.75;;;16.80;67.90;;;;;;10563146;28;20050;-56
2021/11/29 22:01:57;;;;;;;1.48;0.68;;;16.70;67.90;;;;;;10580738;28;20043;-56
2021/11/29 22:06:58;;;;;;;0.60;0.30;;;16.70;67.90;;;;;;10563075;28;20024;-57
2021/11/29 22:11:59;;;;;;;0.90;0.40;;;16.60;67.90;;;;;;10562330;28;20036;-57
2021/11/29 22:16:59;;;;;;;1.38;0.55;;;16.60;67.90;;;;;;10561963;28;20023;-57
2021/11/29 22:22:00;;;;;;;2.08;0.70;;;16.60;68.00;;;;;;10579555;28;20032;-56
2021/11/29 22:27:01;;;;;;;2.28;0.50;;;16.50;68.60;;;;;;10561328;28;20034;-57
2021/11/29 22:32:02;;;;;;;1.38;0.50;;;16.50;68.10;;;;;;10561539;28;20031;-57
2021/11/29 22:37:04;;;;;;;1.30;0.70;;;16.50;68.10;;;;;;10561450;28;20480;-57
2021/11/29 22:42:05;;;;;;;1.95;0.70;;;16.40;68.00;;;;;;10561004;28;20074;-56
2021/11/29 22:47:06;;;;;;;1.77;0.60;;;16.40;68.10;;;;;;10561191;28;20467;-57
2021/11/29 22:52:08;;;;;;;1.02;0.30;;;16.30;68.10;;;;;;10561200;28;20078;-56
2021/11/29 22:57:09;;;;;;;1.42;0.50;;;16.30;68.20;;;;;;10561091;28;20028;-57
2021/11/29 23:02:09;;;;;;;1.65;0.82;;;16.30;68.30;;;;;;10560736;28;20027;-56
2021/11/29 23:07:10;;;;;;;4.07;0.77;;;16.30;68.30;;;;;;10579010;28;20047;-57
2021/11/29 23:12:11;;;;;;;0.80;0.57;;;16.30;68.30;;;;;;10560690;28;20437;-57
2021/11/29 23:17:14;;;;;;;1.45;0.80;;;16.20;68.30;;;;;;10560759;28;20031;-57
2021/11/29 23:22:15;;;;;;;2.60;0.73;;;16.20;68.40;;;;;;10560347;28;20062;-56
2021/11/29 23:27:15;;;;;;;2.53;0.50;;;16.20;68.40;;;;;;10560354;28;20046;-57
2021/11/29 23:32:16;;;;;;;1.58;0.50;;;16.20;68.30;;;;;;10579558;28;20110;-57
2021/11/29 23:37:18;;;;;;;1.33;0.80;;;16.10;68.30;;;;;;10568253;28;20139;-56
2021/11/29 23:42:19;;;;;;;1.77;0.40;;;16.10;68.40;;;;;;10583569;28;20147;-55
2021/11/29 23:47:27;;;;;;;0.80;0.47;;;16.10;68.30;;;;;;10575073;28;20020;-55
2021/11/29 23:52:37;;;;;;;1.73;0.60;;;16.10;68.30;;;;;;10585805;28;20020;-56
2021/11/29 23:57:40;;;;;;;0.52;0.40;;;16.00;68.30;;;;;;10568960;28;20083;-56
